sensor_id;sensor_type;location;lat;lon;timestamp;pressure;altitude;pressure_sealevel;temperature;humidity
3544;BME280;1786;52.870;9.578;2023-02-02T00:01:59;100351.38;;;12.94;59.27
3544;BME280;1786;52.870;9.578;2023-02-02T00:04:28;100376.19;;;13.28;58.25
3544;BME280;1786;52.870;9.578;2023-02-02T00:06:55;100375.75;;;12.28;60.71
3544;BME280;1786;52.870;9.578;2023-02-02T00:09:25;100373.78;;;12.43;60.68
3544;BME280;1786;52.870;9.578;2023-02-02T00:11:54;100367.41;;;12.46;60.99
3544;BME280;1786;52.870;9.578;2023-02-02T00:14:21;100373.72;;;12.32;60.22
3544;BME280;1786;52.870;9.578;2023-02-02T00:16:53;100367.47;;;12.33;61.01
3544;BME280;1786;52.870;9.578;2023-02-02T00:19:26;100355.72;;;12.48;59.98
3544;BME280;1786;52.870;9.578;2023-02-02T00:21:53;100355.00;;;11.48;62.78
3544;BME280;1786;52.870;9.578;2023-02-02T00:24:21;100360.47;;;11.71;61.96
3544;BME280;1786;52.870;9.578;2023-02-02T00:26:52;100371.25;;;11.81;61.76
3544;BME280;1786;52.870;9.578;2023-02-02T00:29:21;100353.34;;;11.97;61.22
3544;BME280;1786;52.870;9.578;2023-02-02T00:31:49;100354.03;;;11.99;60.68
3544;BME280;1786;52.870;9.578;2023-02-02T00:34:16;100363.44;;;11.79;61.19
3544;BME280;1786;52.870;9.578;2023-02-02T00:36:45;100358.25;;;12.15;60.96
3544;BME280;1786;52.870;9.578;2023-02-02T00:39:15;100356.59;;;12.01;61.28
3544;BME280;1786;52.870;9.578;2023-02-02T00:41:44;100362.63;;;12.27;60.79
3544;BME280;1786;52.870;9.578;2023-02-02T00:44:11;100375.06;;;12.13;60.83
3544;BME280;1786;52.870;9.578;2023-02-02T00:46:56;100374.41;;;11.86;61.60
3544;BME280;1786;52.870;9.578;2023-02-02T00:49:22;100380.38;;;11.64;62.81
3544;BME280;1786;52.870;9.578;2023-02-02T00:51:49;100388.66;;;12.33;61.49
3544;BME280;1786;52.870;9.578;2023-02-02T00:54:16;100388.03;;;12.05;62.20
3544;BME280;1786;52.870;9.578;2023-02-02T00:56:42;100382.66;;;12.42;61.23
3544;BME280;1786;52.870;9.578;2023-02-02T00:59:10;100378.53;;;11.40;63.46
3544;BME280;1786;52.870;9.578;2023-02-02T01:01:36;100377.38;;;11.94;62.27
3544;BME280;1786;52.870;9.578;2023-02-02T01:04:04;100375.34;;;11.98;62.41
3544;BME280;1786;52.870;9.578;2023-02-02T01:06:31;100386.78;;;11.98;62.10
3544;BME280;1786;52.870;9.578;2023-02-02T01:08:57;100380.97;;;11.93;62.07
3544;BME280;1786;52.870;9.578;2023-02-02T01:11:24;100396.91;;;12.04;61.69
3544;BME280;1786;52.870;9.578;2023-02-02T01:13:52;100403.41;;;12.00;61.68
3544;BME280;1786;52.870;9.578;2023-02-02T01:16:19;100398.53;;;11.94;62.40
3544;BME280;1786;52.870;9.578;2023-02-02T01:18:49;100403.19;;;12.03;62.30
3544;BME280;1786;52.870;9.578;2023-02-02T01:21:16;100386.94;;;11.71;62.56
3544;BME280;1786;52.870;9.578;2023-02-02T01:23:42;100402.84;;;11.58;62.48
3544;BME280;1786;52.870;9.578;2023-02-02T01:26:10;100404.25;;;11.25;63.52
3544;BME280;1786;52.870;9.578;2023-02-02T01:28:38;100404.97;;;11.40;63.25
3544;BME280;1786;52.870;9.578;2023-02-02T01:31:07;100416.50;;;11.52;62.84
3544;BME280;1786;52.870;9.578;2023-02-02T01:33:34;100425.28;;;11.53;62.96
3544;BME280;1786;52.870;9.578;2023-02-02T01:36:05;100424.94;;;11.70;62.43
3544;BME280;1786;52.870;9.578;2023-02-02T01:38:32;100433.28;;;11.77;61.62
3544;BME280;1786;52.870;9.578;2023-02-02T01:41:00;100428.19;;;11.99;61.75
3544;BME280;1786;52.870;9.578;2023-02-02T01:43:29;100438.63;;;11.89;61.39
3544;BME280;1786;52.870;9.578;2023-02-02T01:45:57;100442.53;;;11.58;62.52
3544;BME280;1786;52.870;9.578;2023-02-02T01:48:27;100443.72;;;11.54;62.49
3544;BME280;1786;52.870;9.578;2023-02-02T01:50:58;100446.66;;;11.62;62.44
3544;BME280;1786;52.870;9.578;2023-02-02T01:53:26;100443.19;;;11.62;62.30
3544;BME280;1786;52.870;9.578;2023-02-02T01:55:54;100443.50;;;11.19;63.69
3544;BME280;1786;52.870;9.578;2023-02-02T01:58:25;100452.81;;;11.24;63.75
3544;BME280;1786;52.870;9.578;2023-02-02T02:00:53;100452.81;;;11.24;64.49
3544;BME280;1786;52.870;9.578;2023-02-02T02:03:23;100464.66;;;11.19;64.38
3544;BME280;1786;52.870;9.578;2023-02-02T02:05:55;100452.16;;;11.34;63.99
3544;BME280;1786;52.870;9.578;2023-02-02T02:11:21;100458.41;;;11.45;63.14
3544;BME280;1786;52.870;9.578;2023-02-02T02:13:48;100455.72;;;11.97;62.22
3544;BME280;1786;52.870;9.578;2023-02-02T02:16:52;100461.56;;;11.76;62.54
3544;BME280;1786;52.870;9.578;2023-02-02T02:34:54;100494.50;;;12.10;61.86
3544;BME280;1786;52.870;9.578;2023-02-02T02:37:31;100491.75;;;11.99;62.28
3544;BME280;1786;52.870;9.578;2023-02-02T02:40:05;100503.38;;;11.71;62.78
3544;BME280;1786;52.870;9.578;2023-02-02T02:42:38;100501.41;;;12.00;62.81
3544;BME280;1786;52.870;9.578;2023-02-02T02:45:08;100498.00;;;11.85;62.88
3544;BME280;1786;52.870;9.578;2023-02-02T02:47:37;100509.59;;;12.21;62.09
3544;BME280;1786;52.870;9.578;2023-02-02T02:50:05;100505.09;;;11.98;62.76
3544;BME280;1786;52.870;9.578;2023-02-02T02:52:33;100502.13;;;12.02;62.44
3544;BME280;1786;52.870;9.578;2023-02-02T02:55:00;100509.88;;;11.67;63.72
3544;BME280;1786;52.870;9.578;2023-02-02T03:00:58;100512.47;;;11.29;65.33
3544;BME280;1786;52.870;9.578;2023-02-02T03:03:38;100514.09;;;11.69;63.70
3544;BME280;1786;52.870;9.578;2023-02-02T03:06:18;100516.00;;;11.67;63.95
3544;BME280;1786;52.870;9.578;2023-02-02T03:09:03;100521.06;;;11.70;64.14
3544;BME280;1786;52.870;9.578;2023-02-02T03:11:33;100525.94;;;11.77;63.31
3544;BME280;1786;52.870;9.578;2023-02-02T03:14:00;100527.13;;;11.73;63.66
3544;BME280;1786;52.870;9.578;2023-02-02T03:16:27;100528.56;;;11.77;63.68
3544;BME280;1786;52.870;9.578;2023-02-02T03:18:54;100526.91;;;11.76;63.29
3544;BME280;1786;52.870;9.578;2023-02-02T03:21:21;100525.03;;;11.90;63.68
3544;BME280;1786;52.870;9.578;2023-02-02T03:23:48;100535.97;;;11.46;63.96
3544;BME280;1786;52.870;9.578;2023-02-02T03:26:15;100533.47;;;11.70;63.53
3544;BME280;1786;52.870;9.578;2023-02-02T03:28:42;100539.81;;;11.67;63.67
3544;BME280;1786;52.870;9.578;2023-02-02T03:31:08;100543.63;;;11.63;63.90
3544;BME280;1786;52.870;9.578;2023-02-02T03:33:36;100545.16;;;11.27;64.81
3544;BME280;1786;52.870;9.578;2023-02-02T03:36:04;100546.13;;;11.26;64.63
3544;BME280;1786;52.870;9.578;2023-02-02T03:38:31;100548.25;;;11.34;63.91
3544;BME280;1786;52.870;9.578;2023-02-02T03:40:57;100556.50;;;11.30;64.07
3544;BME280;1786;52.870;9.578;2023-02-02T03:43:24;100547.88;;;11.13;64.46
3544;BME280;1786;52.870;9.578;2023-02-02T03:45:58;100553.78;;;11.04;65.02
3544;BME280;1786;52.870;9.578;2023-02-02T03:48:26;100575.00;;;10.75;65.44
3544;BME280;1786;52.870;9.578;2023-02-02T03:50:53;100565.50;;;11.00;65.61
3544;BME280;1786;52.870;9.578;2023-02-02T03:53:19;100561.47;;;11.34;65.05
3544;BME280;1786;52.870;9.578;2023-02-02T03:55:46;100567.06;;;11.30;64.79
3544;BME280;1786;52.870;9.578;2023-02-02T03:58:13;100574.22;;;11.55;64.15
3544;BME280;1786;52.870;9.578;2023-02-02T04:00:40;100576.41;;;11.35;64.14
3544;BME280;1786;52.870;9.578;2023-02-02T04:03:06;100577.78;;;11.54;64.46
3544;BME280;1786;52.870;9.578;2023-02-02T04:05:33;100580.41;;;11.41;64.53
3544;BME280;1786;52.870;9.578;2023-02-02T04:08:00;100587.19;;;11.32;64.91
3544;BME280;1786;52.870;9.578;2023-02-02T04:10:26;100589.47;;;11.77;63.33
3544;BME280;1786;52.870;9.578;2023-02-02T04:12:53;100592.91;;;11.39;65.06
3544;BME280;1786;52.870;9.578;2023-02-02T04:15:20;100597.63;;;11.74;63.43
3544;BME280;1786;52.870;9.578;2023-02-02T04:17:46;100603.28;;;11.42;64.00
3544;BME280;1786;52.870;9.578;2023-02-02T04:20:13;100600.28;;;11.34;64.78
3544;BME280;1786;52.870;9.578;2023-02-02T04:22:39;100610.31;;;11.29;64.92
3544;BME280;1786;52.870;9.578;2023-02-02T04:25:06;100615.78;;;11.40;65.04
3544;BME280;1786;52.870;9.578;2023-02-02T04:27:33;100614.06;;;11.39;64.63
3544;BME280;1786;52.870;9.578;2023-02-02T04:29:59;100614.03;;;11.26;64.96
3544;BME280;1786;52.870;9.578;2023-02-02T04:32:26;100612.84;;;11.17;65.50
3544;BME280;1786;52.870;9.578;2023-02-02T04:34:52;100621.63;;;11.18;65.67
3544;BME280;1786;52.870;9.578;2023-02-02T04:37:19;100617.03;;;11.07;65.42
3544;BME280;1786;52.870;9.578;2023-02-02T04:39:47;100621.59;;;10.91;66.04
3544;BME280;1786;52.870;9.578;2023-02-02T04:42:13;100626.75;;;10.79;66.46
3544;BME280;1786;52.870;9.578;2023-02-02T04:44:40;100624.59;;;11.26;65.65
3544;BME280;1786;52.870;9.578;2023-02-02T04:47:06;100632.94;;;11.47;64.94
3544;BME280;1786;52.870;9.578;2023-02-02T04:49:33;100627.81;;;11.44;64.28
3544;BME280;1786;52.870;9.578;2023-02-02T04:52:00;100630.56;;;11.30;65.21
3544;BME280;1786;52.870;9.578;2023-02-02T04:54:26;100632.44;;;11.27;64.98
3544;BME280;1786;52.870;9.578;2023-02-02T04:56:53;100633.44;;;11.12;65.53
3544;BME280;1786;52.870;9.578;2023-02-02T04:59:19;100640.94;;;11.33;64.96
3544;BME280;1786;52.870;9.578;2023-02-02T05:01:46;100636.34;;;10.95;65.81
3544;BME280;1786;52.870;9.578;2023-02-02T05:04:13;100639.84;;;11.22;65.39
3544;BME280;1786;52.870;9.578;2023-02-02T05:06:40;100644.59;;;11.57;64.07
3544;BME280;1786;52.870;9.578;2023-02-02T05:09:07;100633.97;;;11.32;64.93
3544;BME280;1786;52.870;9.578;2023-02-02T05:11:33;100650.09;;;11.00;66.03
3544;BME280;1786;52.870;9.578;2023-02-02T05:14:00;100648.75;;;11.07;65.51
3544;BME280;1786;52.870;9.578;2023-02-02T05:16:27;100642.03;;;10.89;66.38
3544;BME280;1786;52.870;9.578;2023-02-02T05:18:55;100643.84;;;10.74;66.24
3544;BME280;1786;52.870;9.578;2023-02-02T05:21:22;100645.16;;;10.67;66.49
3544;BME280;1786;52.870;9.578;2023-02-02T05:23:49;100647.53;;;10.98;65.43
3544;BME280;1786;52.870;9.578;2023-02-02T05:26:20;100657.38;;;11.23;65.19
3544;BME280;1786;52.870;9.578;2023-02-02T05:28:47;100654.91;;;11.08;65.52
3544;BME280;1786;52.870;9.578;2023-02-02T05:31:14;100649.41;;;10.55;67.17
3544;BME280;1786;52.870;9.578;2023-02-02T05:33:41;100667.09;;;13.89;58.78
3544;BME280;1786;52.870;9.578;2023-02-02T05:36:08;100668.25;;;14.31;55.58
3544;BME280;1786;52.870;9.578;2023-02-02T05:38:35;100658.66;;;12.62;60.19
3544;BME280;1786;52.870;9.578;2023-02-02T05:41:02;100665.81;;;12.98;59.67
3544;BME280;1786;52.870;9.578;2023-02-02T05:43:30;100676.00;;;13.52;57.81
3544;BME280;1786;52.870;9.578;2023-02-02T05:45:57;100674.81;;;12.33;61.37
3544;BME280;1786;52.870;9.578;2023-02-02T05:48:24;100681.16;;;15.26;54.61
3544;BME280;1786;52.870;9.578;2023-02-02T05:51:19;100683.47;;;12.61;60.75
3544;BME280;1786;52.870;9.578;2023-02-02T05:53:46;100685.78;;;11.88;62.49
3544;BME280;1786;52.870;9.578;2023-02-02T05:56:13;100680.41;;;13.04;61.00
3544;BME280;1786;52.870;9.578;2023-02-02T05:58:41;100675.91;;;13.17;58.39
3544;BME280;1786;52.870;9.578;2023-02-02T06:01:08;100680.47;;;13.52;57.53
3544;BME280;1786;52.870;9.578;2023-02-02T06:03:35;100698.16;;;14.57;55.22
3544;BME280;1786;52.870;9.578;2023-02-02T06:06:02;100691.63;;;14.61;54.87
3544;BME280;1786;52.870;9.578;2023-02-02T06:08:31;100691.88;;;14.92;55.11
3544;BME280;1786;52.870;9.578;2023-02-02T06:10:58;100687.66;;;12.89;59.57
3544;BME280;1786;52.870;9.578;2023-02-02T06:13:25;100688.84;;;13.21;59.07
3544;BME280;1786;52.870;9.578;2023-02-02T06:15:51;100691.31;;;12.49;60.29
3544;BME280;1786;52.870;9.578;2023-02-02T06:18:18;100697.03;;;12.05;61.87
3544;BME280;1786;52.870;9.578;2023-02-02T06:20:44;100699.06;;;12.40;60.47
3544;BME280;1786;52.870;9.578;2023-02-02T06:23:12;100701.91;;;12.49;60.45
3544;BME280;1786;52.870;9.578;2023-02-02T06:25:38;100704.16;;;12.30;60.83
3544;BME280;1786;52.870;9.578;2023-02-02T06:28:05;100712.44;;;14.67;55.07
3544;BME280;1786;52.870;9.578;2023-02-02T06:30:33;100710.69;;;12.88;59.11
3544;BME280;1786;52.870;9.578;2023-02-02T06:32:59;100717.81;;;12.62;59.74
3544;BME280;1786;52.870;9.578;2023-02-02T06:35:26;100719.13;;;14.26;55.82
3544;BME280;1786;52.870;9.578;2023-02-02T06:37:53;100725.59;;;14.91;54.60
3544;BME280;1786;52.870;9.578;2023-02-02T06:40:19;100727.88;;;13.69;56.37
3544;BME280;1786;52.870;9.578;2023-02-02T06:42:46;100740.72;;;12.76;59.92
3544;BME280;1786;52.870;9.578;2023-02-02T06:45:13;100731.06;;;12.24;60.46
3544;BME280;1786;52.870;9.578;2023-02-02T06:47:40;100732.13;;;13.35;58.00
3544;BME280;1786;52.870;9.578;2023-02-02T06:50:07;100736.84;;;13.31;58.13
3544;BME280;1786;52.870;9.578;2023-02-02T06:52:35;100738.63;;;12.55;59.87
3544;BME280;1786;52.870;9.578;2023-02-02T06:55:01;100744.53;;;12.85;59.06
3544;BME280;1786;52.870;9.578;2023-02-02T06:57:28;100741.69;;;12.49;59.81
3544;BME280;1786;52.870;9.578;2023-02-02T06:59:55;100745.34;;;13.11;59.13
3544;BME280;1786;52.870;9.578;2023-02-02T07:02:21;100743.34;;;13.51;58.68
3544;BME280;1786;52.870;9.578;2023-02-02T07:04:48;100751.13;;;12.79;59.46
3544;BME280;1786;52.870;9.578;2023-02-02T07:07:15;100751.53;;;12.98;59.06
3544;BME280;1786;52.870;9.578;2023-02-02T07:09:41;100751.44;;;12.74;59.79
3544;BME280;1786;52.870;9.578;2023-02-02T07:12:08;100762.16;;;12.73;59.40
3544;BME280;1786;52.870;9.578;2023-02-02T07:14:34;100762.56;;;12.67;59.68
3544;BME280;1786;52.870;9.578;2023-02-02T07:17:01;100762.78;;;12.76;59.57
3544;BME280;1786;52.870;9.578;2023-02-02T07:19:28;100776.25;;;11.95;61.49
3544;BME280;1786;52.870;9.578;2023-02-02T07:21:54;100770.28;;;12.44;60.81
3544;BME280;1786;52.870;9.578;2023-02-02T07:24:21;100770.13;;;12.73;60.47
3544;BME280;1786;52.870;9.578;2023-02-02T07:26:48;100777.84;;;12.76;59.78
3544;BME280;1786;52.870;9.578;2023-02-02T07:29:14;100787.78;;;12.60;60.79
3544;BME280;1786;52.870;9.578;2023-02-02T07:31:41;100793.66;;;12.90;59.60
3544;BME280;1786;52.870;9.578;2023-02-02T07:34:08;100796.16;;;13.05;59.98
3544;BME280;1786;52.870;9.578;2023-02-02T07:36:35;100794.94;;;13.47;58.99
3544;BME280;1786;52.870;9.578;2023-02-02T07:39:03;100800.34;;;12.58;60.79
3544;BME280;1786;52.870;9.578;2023-02-02T07:41:30;100799.28;;;12.73;60.50
3544;BME280;1786;52.870;9.578;2023-02-02T07:43:58;100803.53;;;12.63;60.90
3544;BME280;1786;52.870;9.578;2023-02-02T07:46:25;100807.31;;;12.97;60.00
3544;BME280;1786;52.870;9.578;2023-02-02T07:48:53;100809.91;;;17.88;49.41
3544;BME280;1786;52.870;9.578;2023-02-02T07:51:21;100824.97;;;19.97;45.75
3544;BME280;1786;52.870;9.578;2023-02-02T07:53:50;100824.13;;;18.08;48.47
3544;BME280;1786;52.870;9.578;2023-02-02T07:56:22;100835.66;;;15.81;53.03
3544;BME280;1786;52.870;9.578;2023-02-02T07:58:54;100829.25;;;15.15;54.58
3544;BME280;1786;52.870;9.578;2023-02-02T08:01:21;100827.91;;;14.87;55.24
3544;BME280;1786;52.870;9.578;2023-02-02T08:03:49;100835.00;;;14.64;55.47
3544;BME280;1786;52.870;9.578;2023-02-02T08:06:21;100829.34;;;18.09;49.69
3544;BME280;1786;52.870;9.578;2023-02-02T08:08:49;100835.53;;;15.48;53.82
3544;BME280;1786;52.870;9.578;2023-02-02T08:11:18;100842.03;;;14.65;55.57
3544;BME280;1786;52.870;9.578;2023-02-02T08:13:50;100838.28;;;14.68;55.92
3544;BME280;1786;52.870;9.578;2023-02-02T08:16:18;100844.56;;;14.32;56.49
3544;BME280;1786;52.870;9.578;2023-02-02T08:18:45;100847.59;;;14.74;55.24
3544;BME280;1786;52.870;9.578;2023-02-02T08:21:12;100839.28;;;13.95;57.75
3544;BME280;1786;52.870;9.578;2023-02-02T08:23:40;100852.19;;;13.26;59.58
3544;BME280;1786;52.870;9.578;2023-02-02T08:26:15;100856.47;;;13.41;59.65
3544;BME280;1786;52.870;9.578;2023-02-02T08:28:46;100864.59;;;13.12;60.72
3544;BME280;1786;52.870;9.578;2023-02-02T08:31:18;100863.47;;;13.79;59.83
3544;BME280;1786;52.870;9.578;2023-02-02T08:33:47;100867.84;;;15.66;55.77
3544;BME280;1786;52.870;9.578;2023-02-02T08:36:18;100868.78;;;18.75;49.26
3544;BME280;1786;52.870;9.578;2023-02-02T08:38:45;100874.06;;;17.17;50.73
3544;BME280;1786;52.870;9.578;2023-02-02T08:41:14;100875.00;;;15.88;53.68
3544;BME280;1786;52.870;9.578;2023-02-02T08:43:41;100874.16;;;15.43;54.78
3544;BME280;1786;52.870;9.578;2023-02-02T08:46:10;100881.63;;;15.04;55.39
3544;BME280;1786;52.870;9.578;2023-02-02T08:48:37;100883.50;;;14.44;57.43
3544;BME280;1786;52.870;9.578;2023-02-02T08:51:05;100889.97;;;16.65;53.50
3544;BME280;1786;52.870;9.578;2023-02-02T08:53:33;100892.47;;;17.20;51.21
3544;BME280;1786;52.870;9.578;2023-02-02T08:56:05;100890.81;;;16.44;53.57
3544;BME280;1786;52.870;9.578;2023-02-02T08:58:33;100901.41;;;16.88;52.21
3544;BME280;1786;52.870;9.578;2023-02-02T09:01:10;100901.22;;;16.80;53.18
3544;BME280;1786;52.870;9.578;2023-02-02T09:03:38;100907.44;;;17.63;51.70
3544;BME280;1786;52.870;9.578;2023-02-02T09:06:07;100903.97;;;16.90;52.99
3544;BME280;1786;52.870;9.578;2023-02-02T09:08:34;100912.50;;;16.72;52.71
3544;BME280;1786;52.870;9.578;2023-02-02T09:11:08;100904.31;;;15.88;54.52
3544;BME280;1786;52.870;9.578;2023-02-02T09:13:37;100915.75;;;18.00;51.50
3544;BME280;1786;52.870;9.578;2023-02-02T09:16:06;100914.91;;;16.86;52.29
3544;BME280;1786;52.870;9.578;2023-02-02T09:18:33;100920.75;;;17.22;52.84
3544;BME280;1786;52.870;9.578;2023-02-02T09:21:02;100928.09;;;17.82;53.37
3544;BME280;1786;52.870;9.578;2023-02-02T09:23:31;100931.16;;;20.35;49.25
3544;BME280;1786;52.870;9.578;2023-02-02T09:26:17;100938.31;;;20.44;48.70
3544;BME280;1786;52.870;9.578;2023-02-02T09:28:47;100945.94;;;24.25;41.61
3544;BME280;1786;52.870;9.578;2023-02-02T09:31:14;100965.13;;;24.84;40.53
3544;BME280;1786;52.870;9.578;2023-02-02T09:33:41;100961.84;;;23.81;41.42
3544;BME280;1786;52.870;9.578;2023-02-02T09:36:19;100963.50;;;22.18;44.34
3544;BME280;1786;52.870;9.578;2023-02-02T09:38:48;100972.19;;;22.54;44.24
3544;BME280;1786;52.870;9.578;2023-02-02T09:47:07;100980.03;;;21.54;44.58
3544;BME280;1786;52.870;9.578;2023-02-02T09:49:49;100971.53;;;20.97;46.07
3544;BME280;1786;52.870;9.578;2023-02-02T09:52:24;100979.06;;;20.75;46.33
3544;BME280;1786;52.870;9.578;2023-02-02T09:55:06;100972.41;;;20.80;46.99
3544;BME280;1786;52.870;9.578;2023-02-02T09:57:40;100977.59;;;21.17;46.19
3544;BME280;1786;52.870;9.578;2023-02-02T10:00:30;100979.41;;;21.60;45.38
3544;BME280;1786;52.870;9.578;2023-02-02T10:03:06;100990.91;;;22.13;44.34
3544;BME280;1786;52.870;9.578;2023-02-02T10:06:02;101005.97;;;22.32;44.30
3544;BME280;1786;52.870;9.578;2023-02-02T10:08:38;100992.72;;;22.47;44.17
3544;BME280;1786;52.870;9.578;2023-02-02T10:11:24;100994.25;;;23.56;43.21
3544;BME280;1786;52.870;9.578;2023-02-02T10:13:54;101002.63;;;23.94;41.96
3544;BME280;1786;52.870;9.578;2023-02-02T10:16:24;101003.44;;;24.34;42.51
3544;BME280;1786;52.870;9.578;2023-02-02T10:19:02;101013.84;;;24.14;41.98
3544;BME280;1786;52.870;9.578;2023-02-02T10:21:44;101007.31;;;24.00;42.32
3544;BME280;1786;52.870;9.578;2023-02-02T10:24:18;101012.31;;;24.11;42.03
3544;BME280;1786;52.870;9.578;2023-02-02T10:26:48;101018.72;;;23.79;42.11
3544;BME280;1786;52.870;9.578;2023-02-02T10:29:31;101032.41;;;23.37;43.08
3544;BME280;1786;52.870;9.578;2023-02-02T10:32:30;101034.63;;;22.41;44.40
3544;BME280;1786;52.870;9.578;2023-02-02T10:35:15;101028.75;;;21.51;44.56
3544;BME280;1786;52.870;9.578;2023-02-02T10:38:16;101022.09;;;20.84;46.06
3544;BME280;1786;52.870;9.578;2023-02-02T10:41:48;101021.81;;;20.87;47.35
3544;BME280;1786;52.870;9.578;2023-02-02T10:46:38;101022.13;;;21.02;46.43
3544;BME280;1786;52.870;9.578;2023-02-02T10:51:32;101042.16;;;21.95;44.36
3544;BME280;1786;52.870;9.578;2023-02-02T10:54:01;101044.66;;;22.23;44.24
3544;BME280;1786;52.870;9.578;2023-02-02T10:56:35;101054.03;;;22.19;44.09
3544;BME280;1786;52.870;9.578;2023-02-02T10:59:10;101048.38;;;21.70;44.61
3544;BME280;1786;52.870;9.578;2023-02-02T11:01:39;101061.72;;;21.17;45.55
3544;BME280;1786;52.870;9.578;2023-02-02T11:04:08;101062.78;;;20.89;46.08
3544;BME280;1786;52.870;9.578;2023-02-02T11:06:55;101050.75;;;20.47;46.74
3544;BME280;1786;52.870;9.578;2023-02-02T11:09:30;101050.47;;;20.13;46.71
3544;BME280;1786;52.870;9.578;2023-02-02T11:12:09;101042.69;;;19.82;46.68
3544;BME280;1786;52.870;9.578;2023-02-02T11:14:46;101044.72;;;19.61;47.27
3544;BME280;1786;52.870;9.578;2023-02-02T11:17:20;101044.03;;;19.39;48.37
3544;BME280;1786;52.870;9.578;2023-02-02T11:19:48;101042.59;;;19.74;48.08
3544;BME280;1786;52.870;9.578;2023-02-02T11:22:45;101052.09;;;18.91;48.44
3544;BME280;1786;52.870;9.578;2023-02-02T11:25:28;101053.34;;;17.96;50.16
3544;BME280;1786;52.870;9.578;2023-02-02T11:27:57;101051.47;;;18.17;51.52
3544;BME280;1786;52.870;9.578;2023-02-02T11:30:33;101056.78;;;18.48;49.68
3544;BME280;1786;52.870;9.578;2023-02-02T11:35:52;101054.16;;;18.68;49.48
3544;BME280;1786;52.870;9.578;2023-02-02T11:38:19;101045.84;;;18.21;50.02
3544;BME280;1786;52.870;9.578;2023-02-02T11:40:59;101039.81;;;17.88;50.01
3544;BME280;1786;52.870;9.578;2023-02-02T11:43:32;101037.81;;;17.59;50.54
3544;BME280;1786;52.870;9.578;2023-02-02T11:46:04;101033.47;;;17.68;50.58
3544;BME280;1786;52.870;9.578;2023-02-02T11:48:38;101039.22;;;18.15;49.31
3544;BME280;1786;52.870;9.578;2023-02-02T11:51:06;101042.09;;;17.92;49.85
3544;BME280;1786;52.870;9.578;2023-02-02T11:54:02;101047.19;;;17.74;49.98
3544;BME280;1786;52.870;9.578;2023-02-02T11:56:33;101052.72;;;17.83;50.07
3544;BME280;1786;52.870;9.578;2023-02-02T11:59:00;101046.28;;;17.64;50.60
3544;BME280;1786;52.870;9.578;2023-02-02T12:01:37;101047.16;;;17.53;50.72
3544;BME280;1786;52.870;9.578;2023-02-02T12:06:41;101051.38;;;18.29;49.77
3544;BME280;1786;52.870;9.578;2023-02-02T12:09:19;101055.38;;;18.54;50.06
3544;BME280;1786;52.870;9.578;2023-02-02T12:12:00;101057.38;;;18.62;48.57
3544;BME280;1786;52.870;9.578;2023-02-02T12:14:37;101064.53;;;18.51;48.84
3544;BME280;1786;52.870;9.578;2023-02-02T12:19:55;101064.53;;;17.80;49.73
3544;BME280;1786;52.870;9.578;2023-02-02T12:22:50;101066.31;;;18.91;48.10
3544;BME280;1786;52.870;9.578;2023-02-02T12:25:46;101057.19;;;19.03;47.80
3544;BME280;1786;52.870;9.578;2023-02-02T12:34:10;101060.75;;;18.64;48.61
3544;BME280;1786;52.870;9.578;2023-02-02T12:42:21;101054.41;;;18.65;47.31
3544;BME280;1786;52.870;9.578;2023-02-02T12:45:15;101051.34;;;17.88;49.25
3544;BME280;1786;52.870;9.578;2023-02-02T12:53:45;101052.56;;;17.63;50.41
3544;BME280;1786;52.870;9.578;2023-02-02T13:02:02;101070.44;;;17.84;49.44
3544;BME280;1786;52.870;9.578;2023-02-02T13:07:41;101071.88;;;17.88;50.30
3544;BME280;1786;52.870;9.578;2023-02-02T13:10:17;101062.09;;;17.56;50.83
3544;BME280;1786;52.870;9.578;2023-02-02T13:13:07;101072.34;;;17.72;50.86
3544;BME280;1786;52.870;9.578;2023-02-02T13:15:37;101066.97;;;18.24;49.85
3544;BME280;1786;52.870;9.578;2023-02-02T13:18:11;101075.63;;;18.87;48.35
3544;BME280;1786;52.870;9.578;2023-02-02T13:20:43;101069.75;;;20.36;46.11
3544;BME280;1786;52.870;9.578;2023-02-02T13:23:24;101071.00;;;20.04;46.92
3544;BME280;1786;52.870;9.578;2023-02-02T13:25:57;101084.03;;;19.89;46.51
3544;BME280;1786;52.870;9.578;2023-02-02T13:28:32;101068.56;;;19.44;46.67
3544;BME280;1786;52.870;9.578;2023-02-02T13:31:04;101082.97;;;19.05;47.06
3544;BME280;1786;52.870;9.578;2023-02-02T13:33:36;101079.81;;;17.99;48.42
3544;BME280;1786;52.870;9.578;2023-02-02T13:36:17;101078.66;;;19.99;44.45
3544;BME280;1786;52.870;9.578;2023-02-02T13:38:54;101087.22;;;21.13;43.25
3544;BME280;1786;52.870;9.578;2023-02-02T13:41:24;101090.31;;;19.22;45.75
3544;BME280;1786;52.870;9.578;2023-02-02T13:44:10;101088.59;;;19.01;46.49
3544;BME280;1786;52.870;9.578;2023-02-02T13:46:49;101097.09;;;22.19;41.64
3544;BME280;1786;52.870;9.578;2023-02-02T13:51:54;101083.91;;;17.61;46.92
3544;BME280;1786;52.870;9.578;2023-02-02T14:02:59;101098.69;;;22.72;41.02
3544;BME280;1786;52.870;9.578;2023-02-02T14:05:32;101107.56;;;23.89;39.69
3544;BME280;1786;52.870;9.578;2023-02-02T14:08:03;101113.19;;;21.05;43.21
3544;BME280;1786;52.870;9.578;2023-02-02T14:10:37;101103.53;;;19.53;46.06
3544;BME280;1786;52.870;9.578;2023-02-02T14:15:59;101111.97;;;18.49;46.71
3544;BME280;1786;52.870;9.578;2023-02-02T14:23:59;101123.38;;;18.42;47.99
3544;BME280;1786;52.870;9.578;2023-02-02T14:26:44;101108.59;;;18.07;49.17
3544;BME280;1786;52.870;9.578;2023-02-02T14:31:58;101132.84;;;23.22;41.26
3544;BME280;1786;52.870;9.578;2023-02-02T14:42:33;101128.00;;;18.30;47.81
3544;BME280;1786;52.870;9.578;2023-02-02T14:48:20;101135.75;;;18.33;47.88
3544;BME280;1786;52.870;9.578;2023-02-02T14:50:54;101138.94;;;18.57;47.49
3544;BME280;1786;52.870;9.578;2023-02-02T14:53:35;101151.22;;;19.98;46.02
3544;BME280;1786;52.870;9.578;2023-02-02T14:56:07;101162.53;;;23.39;40.58
3544;BME280;1786;52.870;9.578;2023-02-02T14:58:37;101156.81;;;20.24;44.23
3544;BME280;1786;52.870;9.578;2023-02-02T15:06:32;101153.19;;;18.06;48.73
3544;BME280;1786;52.870;9.578;2023-02-02T15:14:56;101163.66;;;18.19;48.49
3544;BME280;1786;52.870;9.578;2023-02-02T15:20:20;101179.88;;;18.17;49.03
3544;BME280;1786;52.870;9.578;2023-02-02T15:23:15;101177.25;;;18.06;49.43
3544;BME280;1786;52.870;9.578;2023-02-02T15:25:55;101187.75;;;17.45;50.46